createdAt,value
2022-12-23T00:02:08.266Z,99553.13
2022-12-23T00:04:55.318Z,99546.31
2022-12-23T00:07:42.195Z,99543.72
2022-12-23T00:10:29.754Z,99548.06
2022-12-23T00:13:14.836Z,99551.59
2022-12-23T00:16:02.070Z,99536.16
2022-12-23T00:18:49.414Z,99543.03
2022-12-23T00:21:37.183Z,99458.16
2022-12-23T00:24:24.185Z,99550.03
2022-12-23T00:27:11.434Z,99552.66
2022-12-23T00:29:58.242Z,99550.97
2022-12-23T00:32:45.281Z,99554.41
2022-12-23T00:35:32.221Z,99502.06
2022-12-23T00:38:19.431Z,99563.97
2022-12-23T00:41:09.686Z,99565.75
2022-12-23T00:43:56.616Z,99569.22
2022-12-23T00:46:43.485Z,99554.63
2022-12-23T00:49:33.348Z,99535.69
2022-12-23T00:52:21.341Z,99556.34
2022-12-23T00:55:08.610Z,99505.72
2022-12-23T00:57:55.546Z,99550.44
2022-12-23T01:00:43.335Z,99566.78
2022-12-23T01:03:33.971Z,99564.22
2022-12-23T01:06:22.416Z,99564.28
2022-12-23T01:09:09.291Z,99566.03
2022-12-23T01:11:56.276Z,99548.84
2022-12-23T01:14:43.368Z,99554.88
2022-12-23T01:17:30.465Z,99558.34
2022-12-23T01:20:17.409Z,99557.50
2022-12-23T01:23:04.274Z,99557.53
2022-12-23T01:25:51.829Z,99548.06
2022-12-23T01:28:38.905Z,99556.72
2022-12-23T01:31:29.897Z,99557.59
2022-12-23T01:34:17.145Z,99507.78
2022-12-23T01:37:04.215Z,99537.88
2022-12-23T01:39:51.421Z,99534.50
2022-12-23T01:42:39.225Z,99559.38
2022-12-23T01:45:41.390Z,99563.75
2022-12-23T01:48:30.571Z,99561.16
2022-12-23T01:51:26.618Z,99563.78
2022-12-23T01:54:17.479Z,99539.75
2022-12-23T01:57:04.610Z,99575.00
2022-12-23T01:59:50.070Z,99576.78
2022-12-23T02:02:35.915Z,99564.72
2022-12-23T02:05:22.969Z,99524.44
2022-12-23T02:08:11.126Z,99579.41
2022-12-23T02:11:35.854Z,99557.09
2022-12-23T02:14:40.469Z,99565.72
2022-12-23T02:17:49.230Z,99591.53
2022-12-23T02:21:11.283Z,99585.53
2022-12-23T02:24:16.533Z,99600.16
2022-12-23T02:27:26.171Z,99610.53
2022-12-23T02:30:39.362Z,99608.81
2022-12-23T02:33:39.586Z,99612.31
2022-12-23T02:36:38.596Z,99607.16
2022-12-23T02:39:33.462Z,99612.34
2022-12-23T02:42:38.854Z,99614.06
2022-12-23T02:45:42.755Z,99608.06
2022-12-23T02:48:52.925Z,99621.84
2022-12-23T02:51:47.083Z,99621.88
2022-12-23T02:54:38.599Z,99536.78
2022-12-23T02:57:28.801Z,99627.94
2022-12-23T03:00:18.998Z,99615.88
2022-12-23T03:03:06.569Z,99634.88
2022-12-23T03:05:58.369Z,99640.91
2022-12-23T03:08:59.552Z,99635.75
2022-12-23T03:12:05.111Z,99646.09
2022-12-23T03:15:16.564Z,99640.09
2022-12-23T03:18:53.357Z,99646.13
2022-12-23T03:21:51.292Z,99641.88
2022-12-23T03:24:50.506Z,99600.59
2022-12-23T03:27:49.885Z,99645.28
2022-12-23T03:30:39.779Z,99641.88
2022-12-23T03:33:57.305Z,99641.91
2022-12-23T03:37:00.053Z,99646.19
2022-12-23T03:39:54.707Z,99642.75
2022-12-23T03:42:54.522Z,99578.28
2022-12-23T03:45:50.561Z,99650.53
2022-12-23T03:48:41.805Z,99646.25
2022-12-23T03:51:36.881Z,99641.06
2022-12-23T03:54:30.485Z,99537.88
2022-12-23T03:57:25.142Z,99635.97
2022-12-23T04:00:12.171Z,99641.94
2022-12-23T04:03:38.708Z,99648.88
2022-12-23T04:06:30.578Z,99649.72
2022-12-23T04:09:21.918Z,99644.56
2022-12-23T04:12:09.752Z,99641.13
2022-12-23T04:14:57.919Z,99643.69
2022-12-23T04:17:45.189Z,99648.03
2022-12-23T04:20:32.174Z,99648.03
2022-12-23T04:23:19.118Z,99650.59
2022-12-23T04:26:06.139Z,99651.44
2022-12-23T04:28:53.146Z,99643.69
2022-12-23T04:31:40.084Z,99645.44
2022-12-23T04:34:27.062Z,99635.94
2022-12-23T04:37:13.965Z,99645.44
2022-12-23T04:40:01.058Z,99601.53
2022-12-23T04:42:48.008Z,99602.41
2022-12-23T04:45:35.136Z,99637.69
2022-12-23T04:48:22.202Z,99633.38
2022-12-23T04:51:09.258Z,99643.69
2022-12-23T04:53:56.634Z,99623.91
2022-12-23T04:56:43.813Z,99639.41
2022-12-23T04:59:30.878Z,99634.25
2022-12-23T05:02:18.697Z,99598.94
2022-12-23T05:05:05.725Z,99627.34
2022-12-23T05:07:52.755Z,99642.81
2022-12-23T05:10:39.561Z,99630.78
2022-12-23T05:13:26.607Z,99608.38
2022-12-23T05:16:14.533Z,99632.50
2022-12-23T05:19:01.630Z,99627.31
2022-12-23T05:21:48.514Z,99644.56
2022-12-23T05:24:35.561Z,99638.53
2022-12-23T05:27:22.355Z,99645.38
2022-12-23T05:30:09.330Z,99635.94
2022-12-23T05:32:56.588Z,99644.56
2022-12-23T05:35:45.721Z,99641.97
2022-12-23T05:38:32.571Z,99640.22
2022-12-23T05:41:19.636Z,99637.63
2022-12-23T05:44:06.509Z,99635.94
2022-12-23T05:46:53.578Z,99623.88
2022-12-23T05:49:40.615Z,99605.78
2022-12-23T05:52:27.478Z,99630.78
2022-12-23T05:55:14.316Z,99638.50
2022-12-23T05:58:01.601Z,99644.50
2022-12-23T06:00:48.585Z,99647.94
2022-12-23T06:03:36.754Z,99588.56
2022-12-23T06:06:23.962Z,99640.22
2022-12-23T06:09:12.178Z,99648.81
2022-12-23T06:11:59.157Z,99511.94
2022-12-23T06:14:46.220Z,99651.38
2022-12-23T06:17:33.457Z,99652.22
2022-12-23T06:20:21.249Z,99653.09
2022-12-23T06:23:08.237Z,99653.09
2022-12-23T06:25:55.350Z,99658.25
2022-12-23T06:28:42.282Z,99656.53
2022-12-23T06:31:29.388Z,99660.81
2022-12-23T06:34:16.475Z,99659.94
2022-12-23T06:37:03.761Z,99665.97
2022-12-23T06:39:50.872Z,99609.13
2022-12-23T06:42:38.158Z,99591.91
2022-12-23T06:45:25.550Z,99673.69
2022-12-23T06:48:12.680Z,99633.22
2022-12-23T06:50:59.571Z,99679.72
2022-12-23T06:53:46.603Z,99641.81
2022-12-23T06:56:33.524Z,99693.44
2022-12-23T06:59:20.542Z,99689.13
2022-12-23T07:02:07.493Z,99696.03
2022-12-23T07:04:54.655Z,99622.78
2022-12-23T07:07:41.472Z,99683.97
2022-12-23T07:10:29.308Z,99690.84
2022-12-23T07:13:16.213Z,99673.63
2022-12-23T07:16:03.228Z,99691.69
2022-12-23T07:18:50.046Z,99676.19
2022-12-23T07:21:37.135Z,99693.38
2022-12-23T07:24:24.599Z,99693.38
2022-12-23T07:27:12.281Z,99648.56
2022-12-23T07:29:59.119Z,99689.09
2022-12-23T07:32:46.253Z,99696.81
2022-12-23T07:35:33.197Z,99685.63
2022-12-23T07:38:20.389Z,99696.78
2022-12-23T07:41:09.089Z,99695.91
2022-12-23T07:43:56.012Z,99701.94
2022-12-23T07:46:43.035Z,99706.22
2022-12-23T07:49:30.157Z,99687.28
2022-12-23T07:52:17.769Z,99702.75
2022-12-23T07:55:04.770Z,99688.16
2022-12-23T07:57:52.127Z,99701.03
2022-12-23T08:00:40.420Z,99553.78
2022-12-23T08:03:29.517Z,99688.97
2022-12-23T08:06:25.983Z,99697.53
2022-12-23T08:09:12.925Z,99688.06
2022-12-23T08:11:59.796Z,99699.25
2022-12-23T08:14:46.807Z,99700.97
2022-12-23T08:17:34.331Z,99717.25
2022-12-23T08:20:21.192Z,99568.28
2022-12-23T08:23:08.081Z,99709.50
2022-12-23T08:25:55.013Z,99718.09
2022-12-23T08:28:42.025Z,99723.25
2022-12-23T08:31:33.372Z,99717.22
2022-12-23T08:34:21.517Z,99720.66
2022-12-23T08:37:08.595Z,99718.06
2022-12-23T14:44:31.474Z,99595.38
2022-12-23T14:46:59.096Z,99590.22
2022-12-23T14:50:03.650Z,99599.66
2022-12-23T14:53:05.462Z,99605.66
2022-12-23T14:55:52.357Z,99606.50
2022-12-23T14:58:51.254Z,99599.63
2022-12-23T15:01:40.135Z,99589.31
2022-12-23T15:04:49.694Z,99583.28
2022-12-23T15:07:51.253Z,99585.84
2022-12-23T15:10:42.169Z,99593.56
2022-12-23T15:13:37.109Z,99583.22
2022-12-23T15:16:24.076Z,99569.47
2022-12-23T15:19:15.744Z,99600.44
2022-12-23T15:22:13.226Z,99534.19
2022-12-23T15:25:06.698Z,99599.53
2022-12-23T15:28:01.558Z,99589.19
2022-12-23T15:31:06.154Z,99597.75
2022-12-23T15:34:03.986Z,99587.44
2022-12-23T15:36:57.422Z,99579.72
2022-12-23T15:39:57.962Z,99578.88
2022-12-23T15:42:51.562Z,99560.84
2022-12-23T15:45:59.610Z,99557.38
2022-12-23T15:48:50.354Z,99559.97
2022-12-23T15:54:55.677Z,99552.22
2022-12-23T15:57:50.409Z,99568.59
2022-12-23T16:00:51.132Z,99553.97
2022-12-23T16:03:50.921Z,99569.41
2022-12-23T16:06:40.602Z,99572.84
2022-12-23T16:09:37.535Z,99562.56
2022-12-23T16:12:36.633Z,99566.00
2022-12-23T16:15:57.464Z,99570.28
2022-12-23T16:18:47.751Z,99572.84
2022-12-23T16:21:35.470Z,99567.69
2022-12-23T16:24:28.445Z,99551.34
2022-12-23T16:27:15.501Z,99554.78
2022-12-23T16:30:03.166Z,99553.06
2022-12-23T16:32:50.384Z,99547.06
2022-12-23T16:35:58.970Z,99548.75
2022-12-23T16:38:47.197Z,99409.38
2022-12-23T16:41:34.537Z,99538.47
2022-12-23T16:44:23.056Z,99547.91
2022-12-23T16:47:11.653Z,99399.06
2022-12-23T16:49:58.493Z,99544.47
2022-12-23T16:52:45.488Z,99541.88
2022-12-23T16:55:35.982Z,99541.03
2022-12-23T16:58:22.927Z,99543.59
2022-12-23T17:01:11.215Z,99533.28
2022-12-23T17:03:58.245Z,99541.03
2022-12-23T17:06:45.687Z,99541.00
2022-12-23T17:09:32.755Z,99545.31
2022-12-23T17:12:19.805Z,99541.00
2022-12-23T17:15:06.879Z,99534.13
2022-12-23T17:17:59.056Z,99399.88
2022-12-23T17:20:46.189Z,99529.78
2022-12-23T17:23:51.052Z,99549.59
2022-12-23T17:26:38.276Z,99456.66
2022-12-23T17:29:26.102Z,99536.72
2022-12-23T17:32:13.172Z,99539.28
2022-12-23T17:35:00.871Z,99481.63
2022-12-23T17:37:48.386Z,99448.94
2022-12-23T17:40:36.177Z,99534.97
2022-12-23T17:43:24.223Z,99547.84
2022-12-23T17:46:11.488Z,99528.09
2022-12-23T17:48:58.576Z,99520.34
2022-12-23T17:51:47.233Z,99534.13
2022-12-23T17:54:42.561Z,99528.09
2022-12-23T17:57:44.460Z,99532.38
2022-12-23T18:00:34.613Z,99534.97
2022-12-23T18:03:21.822Z,99528.09
2022-12-23T18:06:08.883Z,99539.28
2022-12-23T18:08:55.861Z,99542.69
2022-12-23T18:11:56.335Z,99538.41
2022-12-23T18:14:46.969Z,99543.56
2022-12-23T18:17:37.397Z,99500.47
2022-12-23T18:20:24.772Z,99534.13
2022-12-23T18:23:14.242Z,99546.13
2022-12-23T18:26:01.727Z,99547.00
2022-12-23T18:28:48.557Z,99533.25
2022-12-23T18:31:38.756Z,99535.84
2022-12-23T18:34:25.665Z,99511.72
2022-12-23T18:37:12.475Z,99516.88
2022-12-23T18:39:59.461Z,99516.06
2022-12-23T18:42:46.679Z,99477.38
2022-12-23T18:45:54.324Z,99526.38
2022-12-23T18:48:41.843Z,99543.59
2022-12-23T18:51:34.033Z,99556.47
2022-12-23T18:54:21.037Z,99553.91
2022-12-23T18:57:07.870Z,99576.25
2022-12-23T18:59:54.849Z,99555.63
2022-12-23T19:02:41.698Z,99556.50
2022-12-23T19:05:36.327Z,99553.94
2022-12-23T19:08:26.748Z,99565.13
2022-12-23T19:11:15.333Z,99571.16
2022-12-23T19:14:02.350Z,99565.13
2022-12-23T19:16:51.949Z,99581.44
2022-12-23T19:19:40.330Z,99576.31
2022-12-23T19:22:27.231Z,99572.84
2022-12-23T19:25:14.177Z,99572.84
2022-12-23T19:28:02.699Z,99586.59
2022-12-23T19:30:49.639Z,99589.16
2022-12-23T19:33:36.909Z,99490.16
2022-12-23T19:36:29.329Z,99574.53
2022-12-23T19:39:17.484Z,99553.91
2022-12-23T19:42:05.028Z,99429.13
2022-12-23T19:44:52.089Z,99533.19
2022-12-23T19:47:39.018Z,99567.69
2022-12-23T19:50:46.119Z,99592.59
2022-12-23T19:53:33.034Z,99595.16
2022-12-23T19:56:14.781Z,99590.88
2022-12-23T19:58:43.198Z,99596.03
2022-12-23T20:01:16.669Z,99601.19
2022-12-23T20:03:45.518Z,99602.91
2022-12-23T20:06:22.137Z,99597.75
2022-12-23T20:09:09.557Z,99600.31
2022-12-23T20:12:00.119Z,99600.34
2022-12-23T20:14:47.586Z,99501.34
2022-12-23T20:17:34.405Z,99608.06
2022-12-23T20:20:21.389Z,99609.81
2022-12-23T20:23:08.348Z,99608.13
2022-12-23T20:25:55.189Z,99609.81
2022-12-23T20:28:42.392Z,99614.13
2022-12-23T20:31:35.815Z,99625.28
2022-12-23T20:34:23.046Z,99618.44
2022-12-23T20:37:10.039Z,99621.84
2022-12-23T20:39:56.866Z,99617.59
2022-12-23T20:42:44.031Z,99619.31
2022-12-23T20:45:31.672Z,99621.06
2022-12-23T20:48:18.832Z,99617.63
2022-12-23T20:51:05.702Z,99577.13
2022-12-23T20:53:52.880Z,99627.06
2022-12-23T20:56:40.820Z,99634.78
2022-12-23T20:59:27.898Z,99635.66
2022-12-23T21:02:14.955Z,99634.78
2022-12-23T21:05:02.517Z,99622.72
2022-12-23T21:07:50.337Z,99634.78
2022-12-23T21:10:37.661Z,99632.19
2022-12-23T21:13:25.045Z,99636.53
2022-12-23T21:16:12.299Z,99632.19
2022-12-23T21:19:01.466Z,99648.56
2022-12-23T21:21:49.541Z,99650.28
2022-12-23T21:24:36.622Z,99646.88
2022-12-23T21:27:23.811Z,99571.94
2022-12-23T21:30:10.699Z,99645.97
2022-12-23T21:32:57.732Z,99641.69
2022-12-23T21:35:44.570Z,99635.66
2022-12-23T21:38:31.647Z,99591.75
2022-12-23T21:41:23.101Z,99646.84
2022-12-23T21:44:10.517Z,99648.56
2022-12-23T21:46:57.554Z,99656.31
2022-12-23T21:49:44.773Z,99659.75
2022-12-23T21:52:31.871Z,99656.31
2022-12-23T21:55:18.908Z,99603.75
2022-12-23T21:58:05.863Z,99673.56
2022-12-23T22:00:52.992Z,99680.44
2022-12-23T22:03:40.081Z,99664.97
2022-12-23T22:06:33.192Z,99687.34
2022-12-23T22:09:19.991Z,99690.84
2022-12-23T22:12:07.939Z,99689.16
2022-12-23T22:14:54.793Z,99678.00
2022-12-23T22:17:41.809Z,99677.22
2022-12-23T22:20:29.543Z,99693.59
2022-12-23T22:23:17.067Z,99701.34
2022-12-23T22:26:12.452Z,99697.91
2022-12-23T22:29:00.178Z,99693.63
2022-12-23T22:31:50.157Z,99672.09
2022-12-23T22:34:40.143Z,99686.75
2022-12-23T22:37:27.104Z,99703.09
2022-12-23T22:40:14.195Z,99573.13
2022-12-23T22:43:01.226Z,99715.09
2022-12-23T22:45:48.233Z,99704.75
2022-12-23T22:48:35.728Z,99687.53
2022-12-23T22:51:30.969Z,99700.41
2022-12-23T22:54:17.993Z,99612.66
2022-12-23T22:57:08.475Z,99629.81
2022-12-23T22:59:55.500Z,99728.75
2022-12-23T23:02:46.080Z,99724.38
2022-12-23T23:05:33.172Z,99737.31
2022-12-23T23:08:20.271Z,99724.34
2022-12-23T23:11:07.266Z,99736.34
2022-12-23T23:13:55.706Z,99742.34
2022-12-23T23:16:43.995Z,99737.09
2022-12-23T23:19:31.704Z,99740.53
2022-12-23T23:22:18.623Z,99745.66
2022-12-23T23:25:05.743Z,99749.91
2022-12-23T23:27:52.709Z,99755.94
2022-12-23T23:30:39.715Z,99755.03
2022-12-23T23:33:28.136Z,99762.75
2022-12-23T23:36:16.520Z,99749.75
2022-12-23T23:39:03.484Z,99744.50
2022-12-23T23:41:50.657Z,99760.06
2022-12-23T23:44:37.893Z,99760.06
2022-12-23T23:47:25.058Z,99747.91
2022-12-23T23:50:11.979Z,99686.91
2022-12-23T23:52:59.046Z,99754.75
2022-12-23T23:55:45.896Z,99752.97
2022-12-23T23:58:32.971Z,99759.00
